Bogata, Texas
Current Conditions -  °F | °C
As of 10:15 AM on Monday 24 Nov 2014 (Local Time) from KPRX Reporting Station
Clear Clear  
Wind Chill: 54°   Ceiling: Unl
Heat Index: 54°   Visibility: 10mi
Dew Point: 28°   Wind: 8mph
Humidity: 38%   Direction: 290°WNW
Pressure: 30.05"   Gusts: NA
Location:  33.47°N, 95.21°W
Report Text: KPRX 241615Z 29007KT 10SM CLR 12/M02 A3005 RMK AO1
Loading
Personal Weather Stations






























Interactive Weather Map New forecast layout! Learn more

10-Day Weather Forecast

Advertisements
Track Severe Weather on mobile